sensor_id;sensor_type;location;lat;lon;timestamp;pressure;altitude;pressure_sealevel;temperature;humidity
66430;BME280;53242;51.694;10.006;2023-05-25T00:02:08;100395.47;;;11.95;77.02
66430;BME280;53242;51.694;10.006;2023-05-25T00:04:31;100396.63;;;12.00;76.88
66430;BME280;53242;51.694;10.006;2023-05-25T00:06:55;100399.56;;;12.06;77.90
66430;BME280;53242;51.694;10.006;2023-05-25T00:09:17;100399.97;;;11.94;77.12
66430;BME280;53242;51.694;10.006;2023-05-25T00:11:40;100405.94;;;11.73;78.04
66430;BME280;53242;51.694;10.006;2023-05-25T00:14:02;100409.22;;;11.75;78.64
66430;BME280;53242;51.694;10.006;2023-05-25T00:16:24;100401.22;;;11.83;78.88
66430;BME280;53242;51.694;10.006;2023-05-25T00:18:47;100398.22;;;11.87;78.88
66430;BME280;53242;51.694;10.006;2023-05-25T00:21:10;100402.06;;;11.84;78.92
66430;BME280;53242;51.694;10.006;2023-05-25T00:23:33;100409.34;;;11.82;79.08
66430;BME280;53242;51.694;10.006;2023-05-25T00:25:55;100405.88;;;11.81;79.44
66430;BME280;53242;51.694;10.006;2023-05-25T00:28:17;100397.72;;;11.68;80.11
66430;BME280;53242;51.694;10.006;2023-05-25T00:30:40;100395.97;;;11.98;79.25
66430;BME280;53242;51.694;10.006;2023-05-25T00:33:02;100401.50;;;11.89;79.12
66430;BME280;53242;51.694;10.006;2023-05-25T00:35:26;100391.75;;;11.89;78.85
66430;BME280;53242;51.694;10.006;2023-05-25T00:37:48;100398.38;;;12.08;78.44
66430;BME280;53242;51.694;10.006;2023-05-25T00:40:13;100401.47;;;11.97;78.82
66430;BME280;53242;51.694;10.006;2023-05-25T00:42:37;100401.63;;;12.10;78.52
66430;BME280;53242;51.694;10.006;2023-05-25T00:45:01;100404.59;;;11.92;79.01
66430;BME280;53242;51.694;10.006;2023-05-25T00:47:23;100398.00;;;12.11;78.38
66430;BME280;53242;51.694;10.006;2023-05-25T00:49:46;100392.38;;;11.91;78.98
66430;BME280;53242;51.694;10.006;2023-05-25T00:52:11;100393.13;;;11.85;79.51
66430;BME280;53242;51.694;10.006;2023-05-25T00:54:33;100392.84;;;11.95;79.00
66430;BME280;53242;51.694;10.006;2023-05-25T00:57:02;100393.34;;;11.98;78.93
66430;BME280;53242;51.694;10.006;2023-05-25T00:59:31;100391.09;;;11.87;79.14
66430;BME280;53242;51.694;10.006;2023-05-25T01:01:56;100394.97;;;11.99;79.91
66430;BME280;53242;51.694;10.006;2023-05-25T01:04:20;100396.66;;;11.92;78.69
66430;BME280;53242;51.694;10.006;2023-05-25T01:06:47;100394.91;;;11.84;78.75
66430;BME280;53242;51.694;10.006;2023-05-25T01:09:10;100391.28;;;11.85;79.18
66430;BME280;53242;51.694;10.006;2023-05-25T01:11:38;100391.69;;;11.97;78.85
66430;BME280;53242;51.694;10.006;2023-05-25T01:14:01;100393.75;;;11.87;78.39
66430;BME280;53242;51.694;10.006;2023-05-25T01:16:24;100390.91;;;11.89;78.67
66430;BME280;53242;51.694;10.006;2023-05-25T01:18:49;100397.56;;;11.84;78.73
66430;BME280;53242;51.694;10.006;2023-05-25T01:21:17;100395.16;;;11.98;78.57
66430;BME280;53242;51.694;10.006;2023-05-25T01:23:50;100389.91;;;11.90;79.22
66430;BME280;53242;51.694;10.006;2023-05-25T01:26:15;100402.28;;;11.59;79.75
66430;BME280;53242;51.694;10.006;2023-05-25T01:28:42;100403.94;;;11.75;79.34
66430;BME280;53242;51.694;10.006;2023-05-25T01:31:06;100405.50;;;11.84;78.85
66430;BME280;53242;51.694;10.006;2023-05-25T01:33:30;100394.25;;;12.06;77.76
66430;BME280;53242;51.694;10.006;2023-05-25T01:35:53;100391.16;;;12.02;77.81
66430;BME280;53242;51.694;10.006;2023-05-25T01:38:16;100397.97;;;11.96;77.96
66430;BME280;53242;51.694;10.006;2023-05-25T01:40:39;100400.22;;;11.84;78.67
66430;BME280;53242;51.694;10.006;2023-05-25T01:43:01;100395.19;;;11.90;78.12
66430;BME280;53242;51.694;10.006;2023-05-25T01:45:24;100386.91;;;11.93;78.10
66430;BME280;53242;51.694;10.006;2023-05-25T01:50:44;100396.09;;;11.67;79.36
66430;BME280;53242;51.694;10.006;2023-05-25T01:53:16;100403.81;;;11.54;79.90
66430;BME280;53242;51.694;10.006;2023-05-25T01:55:54;100406.44;;;11.54;80.00
66430;BME280;53242;51.694;10.006;2023-05-25T01:58:21;100392.63;;;11.66;79.17
66430;BME280;53242;51.694;10.006;2023-05-25T02:00:45;100403.69;;;11.47;79.74
66430;BME280;53242;51.694;10.006;2023-05-25T02:03:09;100400.66;;;11.35;79.85
66430;BME280;53242;51.694;10.006;2023-05-25T02:05:31;100401.56;;;11.42;79.78
66430;BME280;53242;51.694;10.006;2023-05-25T02:07:54;100400.69;;;11.50;79.13
66430;BME280;53242;51.694;10.006;2023-05-25T02:10:16;100406.41;;;11.39;79.28
66430;BME280;53242;51.694;10.006;2023-05-25T02:12:39;100406.53;;;11.22;80.32
66430;BME280;53242;51.694;10.006;2023-05-25T02:15:01;100394.81;;;11.16;80.65
66430;BME280;53242;51.694;10.006;2023-05-25T02:17:24;100393.22;;;11.15;80.83
66430;BME280;53242;51.694;10.006;2023-05-25T02:19:49;100399.13;;;11.17;80.48
66430;BME280;53242;51.694;10.006;2023-05-25T02:22:15;100396.44;;;11.26;80.01
66430;BME280;53242;51.694;10.006;2023-05-25T02:24:37;100395.31;;;11.20;79.96
66430;BME280;53242;51.694;10.006;2023-05-25T02:27:00;100397.66;;;11.15;79.86
66430;BME280;53242;51.694;10.006;2023-05-25T02:29:23;100394.41;;;11.05;79.67
66430;BME280;53242;51.694;10.006;2023-05-25T02:31:45;100397.34;;;11.10;79.75
66430;BME280;53242;51.694;10.006;2023-05-25T02:34:07;100397.06;;;11.05;79.94
66430;BME280;53242;51.694;10.006;2023-05-25T02:36:30;100392.06;;;11.10;79.37
66430;BME280;53242;51.694;10.006;2023-05-25T02:38:53;100391.72;;;10.90;80.08
66430;BME280;53242;51.694;10.006;2023-05-25T02:41:15;100389.41;;;10.86;79.39
66430;BME280;53242;51.694;10.006;2023-05-25T02:43:38;100396.47;;;10.94;79.82
66430;BME280;53242;51.694;10.006;2023-05-25T02:46:00;100391.06;;;10.88;80.06
66430;BME280;53242;51.694;10.006;2023-05-25T02:48:22;100403.97;;;10.82;80.05
66430;BME280;53242;51.694;10.006;2023-05-25T02:50:45;100402.88;;;10.68;80.09
66430;BME280;53242;51.694;10.006;2023-05-25T02:53:09;100397.03;;;10.81;80.07
66430;BME280;53242;51.694;10.006;2023-05-25T02:55:32;100406.84;;;10.96;79.51
66430;BME280;53242;51.694;10.006;2023-05-25T02:57:54;100400.25;;;11.00;79.16
66430;BME280;53242;51.694;10.006;2023-05-25T03:00:33;100405.53;;;11.00;79.45
66430;BME280;53242;51.694;10.006;2023-05-25T03:02:55;100398.88;;;11.04;79.24
66430;BME280;53242;51.694;10.006;2023-05-25T03:05:18;100405.03;;;10.96;80.20
66430;BME280;53242;51.694;10.006;2023-05-25T03:07:42;100408.38;;;10.90;80.18
66430;BME280;53242;51.694;10.006;2023-05-25T03:10:04;100407.94;;;10.78;80.98
66430;BME280;53242;51.694;10.006;2023-05-25T03:12:28;100409.25;;;10.82;80.81
66430;BME280;53242;51.694;10.006;2023-05-25T03:14:50;100413.78;;;10.65;81.80
66430;BME280;53242;51.694;10.006;2023-05-25T03:17:16;100418.22;;;10.73;81.67
66430;BME280;53242;51.694;10.006;2023-05-25T03:19:39;100417.91;;;10.68;81.96
66430;BME280;53242;51.694;10.006;2023-05-25T03:22:02;100415.94;;;10.62;82.36
66430;BME280;53242;51.694;10.006;2023-05-25T03:24:27;100415.63;;;10.57;82.31
66430;BME280;53242;51.694;10.006;2023-05-25T03:26:53;100427.13;;;10.72;82.01
66430;BME280;53242;51.694;10.006;2023-05-25T03:29:15;100422.81;;;10.71;81.73
66430;BME280;53242;51.694;10.006;2023-05-25T03:31:37;100417.13;;;10.51;82.85
66430;BME280;53242;51.694;10.006;2023-05-25T03:34:02;100421.19;;;10.70;82.29
66430;BME280;53242;51.694;10.006;2023-05-25T03:36:24;100426.50;;;10.62;82.49
66430;BME280;53242;51.694;10.006;2023-05-25T03:38:52;100434.34;;;10.78;82.30
66430;BME280;53242;51.694;10.006;2023-05-25T03:41:15;100431.22;;;10.75;82.29
66430;BME280;53242;51.694;10.006;2023-05-25T03:43:38;100434.13;;;10.57;82.70
66430;BME280;53242;51.694;10.006;2023-05-25T03:46:02;100435.41;;;10.69;82.20
66430;BME280;53242;51.694;10.006;2023-05-25T03:48:24;100433.81;;;10.51;82.66
66430;BME280;53242;51.694;10.006;2023-05-25T03:50:47;100440.06;;;10.59;82.61
66430;BME280;53242;51.694;10.006;2023-05-25T03:53:09;100445.72;;;10.79;82.46
66430;BME280;53242;51.694;10.006;2023-05-25T03:55:32;100446.13;;;10.99;81.38
66430;BME280;53242;51.694;10.006;2023-05-25T03:57:55;100436.56;;;10.98;81.34
66430;BME280;53242;51.694;10.006;2023-05-25T04:00:17;100448.53;;;11.09;80.63
66430;BME280;53242;51.694;10.006;2023-05-25T04:02:39;100440.03;;;11.22;80.18
66430;BME280;53242;51.694;10.006;2023-05-25T04:05:02;100436.22;;;11.24;80.08
66430;BME280;53242;51.694;10.006;2023-05-25T04:07:25;100444.28;;;11.08;80.08
66430;BME280;53242;51.694;10.006;2023-05-25T04:09:51;100445.00;;;11.25;80.17
66430;BME280;53242;51.694;10.006;2023-05-25T04:12:13;100446.09;;;11.30;79.46
66430;BME280;53242;51.694;10.006;2023-05-25T04:14:35;100454.44;;;11.42;79.67
66430;BME280;53242;51.694;10.006;2023-05-25T04:16:58;100448.53;;;11.40;79.18
66430;BME280;53242;51.694;10.006;2023-05-25T04:19:20;100452.16;;;11.39;79.30
66430;BME280;53242;51.694;10.006;2023-05-25T04:21:43;100455.78;;;11.38;79.13
66430;BME280;53242;51.694;10.006;2023-05-25T04:24:07;100458.25;;;11.40;78.99
66430;BME280;53242;51.694;10.006;2023-05-25T04:26:30;100456.63;;;11.39;79.05
66430;BME280;53242;51.694;10.006;2023-05-25T04:28:53;100464.72;;;11.37;79.21
66430;BME280;53242;51.694;10.006;2023-05-25T04:31:40;100467.34;;;11.37;79.58
66430;BME280;53242;51.694;10.006;2023-05-25T04:34:08;100465.56;;;11.38;79.70
66430;BME280;53242;51.694;10.006;2023-05-25T04:36:36;100462.06;;;11.37;79.70
66430;BME280;53242;51.694;10.006;2023-05-25T04:39:02;100461.03;;;11.23;80.33
66430;BME280;53242;51.694;10.006;2023-05-25T04:41:25;100470.50;;;11.09;81.08
66430;BME280;53242;51.694;10.006;2023-05-25T04:43:53;100475.19;;;10.99;81.49
66430;BME280;53242;51.694;10.006;2023-05-25T04:46:15;100474.66;;;11.03;81.39
66430;BME280;53242;51.694;10.006;2023-05-25T04:48:39;100474.84;;;11.02;81.37
66430;BME280;53242;51.694;10.006;2023-05-25T04:51:01;100479.19;;;10.95;81.89
66430;BME280;53242;51.694;10.006;2023-05-25T04:53:26;100474.28;;;10.83;82.33
66430;BME280;53242;51.694;10.006;2023-05-25T04:55:49;100480.59;;;11.06;81.35
66430;BME280;53242;51.694;10.006;2023-05-25T04:58:12;100486.38;;;11.01;81.27
66430;BME280;53242;51.694;10.006;2023-05-25T05:00:35;100477.72;;;10.92;81.28
66430;BME280;53242;51.694;10.006;2023-05-25T05:02:58;100474.63;;;11.12;80.64
66430;BME280;53242;51.694;10.006;2023-05-25T05:05:21;100485.69;;;11.07;80.96
66430;BME280;53242;51.694;10.006;2023-05-25T05:07:43;100489.00;;;11.09;80.57
66430;BME280;53242;51.694;10.006;2023-05-25T05:10:06;100495.22;;;11.16;80.27
66430;BME280;53242;51.694;10.006;2023-05-25T05:12:31;100494.53;;;10.91;81.25
66430;BME280;53242;51.694;10.006;2023-05-25T05:14:56;100489.81;;;11.10;80.69
66430;BME280;53242;51.694;10.006;2023-05-25T05:17:18;100500.69;;;11.15;80.28
66430;BME280;53242;51.694;10.006;2023-05-25T05:19:41;100510.94;;;11.10;80.59
66430;BME280;53242;51.694;10.006;2023-05-25T05:22:05;100504.84;;;11.09;80.81
66430;BME280;53242;51.694;10.006;2023-05-25T05:24:29;100500.38;;;11.10;80.79
66430;BME280;53242;51.694;10.006;2023-05-25T05:26:52;100506.84;;;11.07;80.66
66430;BME280;53242;51.694;10.006;2023-05-25T05:29:14;100501.97;;;10.88;81.51
66430;BME280;53242;51.694;10.006;2023-05-25T05:31:38;100506.44;;;10.87;81.38
66430;BME280;53242;51.694;10.006;2023-05-25T05:34:00;100512.03;;;10.92;81.01
66430;BME280;53242;51.694;10.006;2023-05-25T05:36:23;100523.47;;;10.84;81.44
66430;BME280;53242;51.694;10.006;2023-05-25T05:38:46;100529.06;;;10.81;81.32
66430;BME280;53242;51.694;10.006;2023-05-25T05:41:09;100531.59;;;10.66;81.57
66430;BME280;53242;51.694;10.006;2023-05-25T05:43:35;100525.97;;;10.69;81.50
66430;BME280;53242;51.694;10.006;2023-05-25T05:45:57;100537.03;;;10.65;81.97
66430;BME280;53242;51.694;10.006;2023-05-25T05:48:20;100536.66;;;10.84;81.06
66430;BME280;53242;51.694;10.006;2023-05-25T05:50:42;100534.78;;;11.01;80.95
66430;BME280;53242;51.694;10.006;2023-05-25T05:53:05;100538.53;;;11.07;80.54
66430;BME280;53242;51.694;10.006;2023-05-25T05:55:28;100548.06;;;11.16;80.35
66430;BME280;53242;51.694;10.006;2023-05-25T05:57:50;100552.06;;;11.12;80.29
66430;BME280;53242;51.694;10.006;2023-05-25T06:00:14;100558.25;;;11.28;79.99
66430;BME280;53242;51.694;10.006;2023-05-25T06:02:37;100557.75;;;10.93;80.65
66430;BME280;53242;51.694;10.006;2023-05-25T06:04:59;100556.16;;;11.23;79.60
66430;BME280;53242;51.694;10.006;2023-05-25T06:07:22;100556.00;;;11.16;80.29
66430;BME280;53242;51.694;10.006;2023-05-25T06:09:45;100565.31;;;11.04;80.35
66430;BME280;53242;51.694;10.006;2023-05-25T06:12:08;100557.47;;;11.19;80.04
66430;BME280;53242;51.694;10.006;2023-05-25T06:14:30;100556.59;;;11.35;78.99
66430;BME280;53242;51.694;10.006;2023-05-25T06:16:56;100552.38;;;11.17;79.01
66430;BME280;53242;51.694;10.006;2023-05-25T06:19:20;100554.94;;;11.34;78.59
66430;BME280;53242;51.694;10.006;2023-05-25T06:21:43;100561.91;;;11.27;78.73
66430;BME280;53242;51.694;10.006;2023-05-25T06:24:06;100560.88;;;11.36;78.16
66430;BME280;53242;51.694;10.006;2023-05-25T06:26:29;100560.94;;;11.51;77.88
66430;BME280;53242;51.694;10.006;2023-05-25T06:28:53;100566.59;;;11.48;78.21
66430;BME280;53242;51.694;10.006;2023-05-25T06:31:15;100571.59;;;11.34;78.37
66430;BME280;53242;51.694;10.006;2023-05-25T06:33:38;100576.94;;;11.58;77.84
66430;BME280;53242;51.694;10.006;2023-05-25T06:36:02;100568.53;;;11.54;77.43
66430;BME280;53242;51.694;10.006;2023-05-25T06:38:25;100573.34;;;11.50;77.88
66430;BME280;53242;51.694;10.006;2023-05-25T06:40:48;100571.56;;;11.43;78.09
66430;BME280;53242;51.694;10.006;2023-05-25T06:43:10;100581.41;;;11.57;77.65
66430;BME280;53242;51.694;10.006;2023-05-25T06:45:53;100580.19;;;11.37;78.28
66430;BME280;53242;51.694;10.006;2023-05-25T06:48:16;100582.03;;;11.36;78.17
66430;BME280;53242;51.694;10.006;2023-05-25T06:50:38;100581.47;;;11.49;77.59
66430;BME280;53242;51.694;10.006;2023-05-25T06:53:01;100577.38;;;11.38;77.53
66430;BME280;53242;51.694;10.006;2023-05-25T06:55:23;100579.88;;;11.31;78.24
66430;BME280;53242;51.694;10.006;2023-05-25T06:57:46;100584.88;;;11.58;77.46
66430;BME280;53242;51.694;10.006;2023-05-25T07:00:09;100585.72;;;11.50;77.36
66430;BME280;53242;51.694;10.006;2023-05-25T07:02:34;100587.19;;;11.61;76.94
66430;BME280;53242;51.694;10.006;2023-05-25T07:04:56;100586.66;;;11.34;77.85
66430;BME280;53242;51.694;10.006;2023-05-25T07:07:19;100584.66;;;11.36;77.50
66430;BME280;53242;51.694;10.006;2023-05-25T07:09:41;100592.66;;;11.19;78.02
66430;BME280;53242;51.694;10.006;2023-05-25T07:12:05;100589.81;;;11.61;77.30
66430;BME280;53242;51.694;10.006;2023-05-25T07:14:33;100588.53;;;11.57;77.20
66430;BME280;53242;51.694;10.006;2023-05-25T07:16:55;100592.47;;;11.61;76.67
66430;BME280;53242;51.694;10.006;2023-05-25T07:19:18;100593.66;;;11.50;76.78
66430;BME280;53242;51.694;10.006;2023-05-25T07:21:40;100596.59;;;11.63;76.36
66430;BME280;53242;51.694;10.006;2023-05-25T07:24:03;100596.91;;;11.60;76.56
66430;BME280;53242;51.694;10.006;2023-05-25T07:26:25;100595.28;;;11.59;76.66
66430;BME280;53242;51.694;10.006;2023-05-25T07:28:48;100592.59;;;11.67;76.29
66430;BME280;53242;51.694;10.006;2023-05-25T07:31:10;100592.75;;;11.66;76.38
66430;BME280;53242;51.694;10.006;2023-05-25T07:33:33;100590.81;;;11.60;76.28
66430;BME280;53242;51.694;10.006;2023-05-25T07:35:55;100597.06;;;11.67;75.79
66430;BME280;53242;51.694;10.006;2023-05-25T07:38:18;100597.16;;;11.50;76.24
66430;BME280;53242;51.694;10.006;2023-05-25T07:40:40;100598.13;;;11.49;76.06
66430;BME280;53242;51.694;10.006;2023-05-25T07:43:03;100602.47;;;11.42;76.25
66430;BME280;53242;51.694;10.006;2023-05-25T07:45:26;100603.09;;;11.76;75.37
66430;BME280;53242;51.694;10.006;2023-05-25T07:47:48;100607.84;;;11.57;75.97
66430;BME280;53242;51.694;10.006;2023-05-25T07:50:12;100613.44;;;11.62;75.53
66430;BME280;53242;51.694;10.006;2023-05-25T07:52:34;100608.63;;;11.66;75.38
66430;BME280;53242;51.694;10.006;2023-05-25T07:54:56;100610.78;;;11.62;75.68
66430;BME280;53242;51.694;10.006;2023-05-25T07:57:19;100611.75;;;11.70;75.26
66430;BME280;53242;51.694;10.006;2023-05-25T07:59:41;100611.78;;;11.61;75.57
66430;BME280;53242;51.694;10.006;2023-05-25T08:02:05;100612.25;;;11.65;75.96
66430;BME280;53242;51.694;10.006;2023-05-25T08:04:29;100616.59;;;11.58;75.96
66430;BME280;53242;51.694;10.006;2023-05-25T08:06:51;100621.28;;;11.79;75.48
66430;BME280;53242;51.694;10.006;2023-05-25T08:09:13;100619.41;;;11.88;74.75
66430;BME280;53242;51.694;10.006;2023-05-25T08:11:36;100616.28;;;11.84;74.79
66430;BME280;53242;51.694;10.006;2023-05-25T08:13:58;100617.84;;;11.70;75.22
66430;BME280;53242;51.694;10.006;2023-05-25T08:16:21;100622.09;;;11.79;75.26
66430;BME280;53242;51.694;10.006;2023-05-25T08:18:44;100616.03;;;11.94;74.64
66430;BME280;53242;51.694;10.006;2023-05-25T08:21:07;100623.50;;;11.98;74.41
66430;BME280;53242;51.694;10.006;2023-05-25T08:23:30;100616.03;;;12.02;74.18
66430;BME280;53242;51.694;10.006;2023-05-25T08:25:53;100626.25;;;12.05;74.24
66430;BME280;53242;51.694;10.006;2023-05-25T08:28:15;100633.03;;;12.08;74.44
66430;BME280;53242;51.694;10.006;2023-05-25T08:30:37;100631.50;;;11.82;75.08
66430;BME280;53242;51.694;10.006;2023-05-25T08:33:00;100635.06;;;11.97;74.73
66430;BME280;53242;51.694;10.006;2023-05-25T08:35:22;100633.59;;;11.63;75.85
66430;BME280;53242;51.694;10.006;2023-05-25T08:37:45;100634.34;;;11.80;75.55
66430;BME280;53242;51.694;10.006;2023-05-25T08:40:13;100633.28;;;11.98;74.93
66430;BME280;53242;51.694;10.006;2023-05-25T08:42:35;100632.47;;;11.89;75.12
66430;BME280;53242;51.694;10.006;2023-05-25T08:44:58;100630.94;;;11.95;75.30
66430;BME280;53242;51.694;10.006;2023-05-25T08:47:21;100629.59;;;11.99;74.45
66430;BME280;53242;51.694;10.006;2023-05-25T08:49:44;100632.63;;;12.19;74.07
66430;BME280;53242;51.694;10.006;2023-05-25T08:52:09;100639.09;;;12.16;73.80
66430;BME280;53242;51.694;10.006;2023-05-25T08:54:35;100641.44;;;12.11;73.70
66430;BME280;53242;51.694;10.006;2023-05-25T08:57:07;100637.50;;;12.07;73.99
66430;BME280;53242;51.694;10.006;2023-05-25T08:59:41;100643.28;;;12.11;73.61
66430;BME280;53242;51.694;10.006;2023-05-25T09:04:58;100648.19;;;12.37;73.05
66430;BME280;53242;51.694;10.006;2023-05-25T09:07:23;100655.47;;;12.58;72.33
66430;BME280;53242;51.694;10.006;2023-05-25T09:09:46;100646.78;;;12.49;73.27
66430;BME280;53242;51.694;10.006;2023-05-25T09:12:10;100644.56;;;12.53;72.76
66430;BME280;53242;51.694;10.006;2023-05-25T09:14:34;100645.44;;;12.69;71.57
66430;BME280;53242;51.694;10.006;2023-05-25T09:16:59;100647.66;;;12.80;71.38
66430;BME280;53242;51.694;10.006;2023-05-25T09:19:22;100648.22;;;12.75;71.14
66430;BME280;53242;51.694;10.006;2023-05-25T09:21:44;100652.88;;;13.03;70.22
66430;BME280;53242;51.694;10.006;2023-05-25T09:24:07;100638.56;;;13.42;68.75
66430;BME280;53242;51.694;10.006;2023-05-25T09:26:29;100636.84;;;13.71;67.65
66430;BME280;53242;51.694;10.006;2023-05-25T09:28:52;100631.88;;;13.61;68.24
66430;BME280;53242;51.694;10.006;2023-05-25T09:31:14;100637.00;;;13.85;66.29
66430;BME280;53242;51.694;10.006;2023-05-25T09:33:40;100626.00;;;13.88;66.77
66430;BME280;53242;51.694;10.006;2023-05-25T09:36:04;100629.81;;;14.00;66.44
66430;BME280;53242;51.694;10.006;2023-05-25T09:38:29;100625.69;;;14.41;65.04
66430;BME280;53242;51.694;10.006;2023-05-25T09:40:51;100629.47;;;13.88;65.81
66430;BME280;53242;51.694;10.006;2023-05-25T09:43:13;100632.47;;;14.22;65.44
66430;BME280;53242;51.694;10.006;2023-05-25T09:45:36;100629.59;;;14.67;64.34
66430;BME280;53242;51.694;10.006;2023-05-25T09:47:59;100636.59;;;14.74;64.30
66430;BME280;53242;51.694;10.006;2023-05-25T09:50:22;100638.50;;;14.37;65.29
66430;BME280;53242;51.694;10.006;2023-05-25T09:52:45;100639.31;;;14.09;65.68
66430;BME280;53242;51.694;10.006;2023-05-25T09:55:08;100632.22;;;13.95;65.70
66430;BME280;53242;51.694;10.006;2023-05-25T09:57:31;100635.22;;;14.57;63.91
66430;BME280;53242;51.694;10.006;2023-05-25T09:59:56;100627.88;;;15.22;62.12
66430;BME280;53242;51.694;10.006;2023-05-25T10:02:19;100633.06;;;14.95;62.64
66430;BME280;53242;51.694;10.006;2023-05-25T10:04:42;100631.50;;;15.56;61.89
66430;BME280;53242;51.694;10.006;2023-05-25T10:07:05;100636.66;;;15.71;61.69
66430;BME280;53242;51.694;10.006;2023-05-25T10:09:28;100634.53;;;15.46;61.89
66430;BME280;53242;51.694;10.006;2023-05-25T10:11:51;100633.81;;;15.18;62.69
66430;BME280;53242;51.694;10.006;2023-05-25T10:14:18;100631.66;;;15.48;61.53
66430;BME280;53242;51.694;10.006;2023-05-25T10:16:41;100634.84;;;15.78;61.14
66430;BME280;53242;51.694;10.006;2023-05-25T10:19:18;100620.66;;;15.58;62.42
66430;BME280;53242;51.694;10.006;2023-05-25T10:21:47;100630.00;;;15.40;62.08
66430;BME280;53242;51.694;10.006;2023-05-25T10:24:20;100633.94;;;15.44;62.87
66430;BME280;53242;51.694;10.006;2023-05-25T10:26:48;100628.34;;;15.88;62.11
66430;BME280;53242;51.694;10.006;2023-05-25T10:29:15;100630.31;;;15.72;61.13
66430;BME280;53242;51.694;10.006;2023-05-25T10:31:38;100626.31;;;15.35;62.30
66430;BME280;53242;51.694;10.006;2023-05-25T10:34:01;100623.53;;;15.56;62.40
66430;BME280;53242;51.694;10.006;2023-05-25T10:36:24;100626.56;;;16.28;60.83
66430;BME280;53242;51.694;10.006;2023-05-25T10:38:50;100617.69;;;15.88;61.27
66430;BME280;53242;51.694;10.006;2023-05-25T10:41:13;100626.44;;;15.75;60.25
66430;BME280;53242;51.694;10.006;2023-05-25T10:43:37;100621.84;;;15.97;60.39
66430;BME280;53242;51.694;10.006;2023-05-25T10:45:59;100627.94;;;15.84;60.95
66430;BME280;53242;51.694;10.006;2023-05-25T10:48:22;100620.78;;;15.98;60.04
66430;BME280;53242;51.694;10.006;2023-05-25T10:50:50;100622.47;;;16.13;60.95
66430;BME280;53242;51.694;10.006;2023-05-25T10:53:13;100629.66;;;16.32;60.87
66430;BME280;53242;51.694;10.006;2023-05-25T10:58:12;100622.06;;;16.49;60.29
66430;BME280;53242;51.694;10.006;2023-05-25T11:00:35;100616.53;;;16.64;59.46
66430;BME280;53242;51.694;10.006;2023-05-25T11:02:57;100611.38;;;16.63;59.74
66430;BME280;53242;51.694;10.006;2023-05-25T11:07:52;100609.34;;;16.58;59.23
66430;BME280;53242;51.694;10.006;2023-05-25T11:10:15;100609.75;;;16.68;59.67
66430;BME280;53242;51.694;10.006;2023-05-25T11:12:37;100614.81;;;16.83;59.12
66430;BME280;53242;51.694;10.006;2023-05-25T11:15:11;100614.03;;;17.03;58.60
66430;BME280;53242;51.694;10.006;2023-05-25T11:17:56;100607.09;;;16.68;58.62
66430;BME280;53242;51.694;10.006;2023-05-25T11:20:21;100606.63;;;16.98;58.65
66430;BME280;53242;51.694;10.006;2023-05-25T11:22:44;100607.72;;;16.57;58.94
66430;BME280;53242;51.694;10.006;2023-05-25T11:25:38;100610.13;;;16.85;58.38
66430;BME280;53242;51.694;10.006;2023-05-25T11:28:04;100599.88;;;16.96;58.17
66430;BME280;53242;51.694;10.006;2023-05-25T11:30:28;100599.50;;;16.72;59.31
66430;BME280;53242;51.694;10.006;2023-05-25T11:32:50;100600.72;;;16.69;58.75
66430;BME280;53242;51.694;10.006;2023-05-25T11:35:12;100610.13;;;16.92;57.81
66430;BME280;53242;51.694;10.006;2023-05-25T11:37:35;100599.34;;;17.25;57.83
66430;BME280;53242;51.694;10.006;2023-05-25T11:39:58;100595.63;;;17.33;57.26
66430;BME280;53242;51.694;10.006;2023-05-25T11:42:22;100600.75;;;17.41;57.85
66430;BME280;53242;51.694;10.006;2023-05-25T11:44:45;100590.91;;;17.35;57.51
66430;BME280;53242;51.694;10.006;2023-05-25T11:47:09;100580.97;;;17.88;56.26
66430;BME280;53242;51.694;10.006;2023-05-25T11:49:37;100589.50;;;17.71;56.24
66430;BME280;53242;51.694;10.006;2023-05-25T11:52:04;100578.63;;;18.05;55.30
66430;BME280;53242;51.694;10.006;2023-05-25T11:54:29;100573.16;;;17.86;55.72
66430;BME280;53242;51.694;10.006;2023-05-25T11:56:52;100576.78;;;17.67;55.82
66430;BME280;53242;51.694;10.006;2023-05-25T11:59:17;100569.72;;;17.79;55.67
66430;BME280;53242;51.694;10.006;2023-05-25T12:01:40;100578.13;;;17.83;55.48
66430;BME280;53242;51.694;10.006;2023-05-25T12:04:07;100572.50;;;18.23;53.85
66430;BME280;53242;51.694;10.006;2023-05-25T12:06:31;100574.78;;;18.45;54.49
66430;BME280;53242;51.694;10.006;2023-05-25T12:08:59;100565.88;;;17.68;54.68
66430;BME280;53242;51.694;10.006;2023-05-25T12:11:31;100570.03;;;17.19;54.23
66430;BME280;53242;51.694;10.006;2023-05-25T12:13:54;100576.38;;;17.24;54.49
66430;BME280;53242;51.694;10.006;2023-05-25T12:16:17;100567.28;;;17.78;53.15
66430;BME280;53242;51.694;10.006;2023-05-25T12:18:40;100571.47;;;17.60;54.79
66430;BME280;53242;51.694;10.006;2023-05-25T12:21:02;100568.88;;;17.08;55.97
66430;BME280;53242;51.694;10.006;2023-05-25T12:23:29;100574.63;;;16.98;56.98
66430;BME280;53242;51.694;10.006;2023-05-25T12:26:11;100574.28;;;16.61;56.79
66430;BME280;53242;51.694;10.006;2023-05-25T12:28:34;100576.13;;;16.67;56.89
66430;BME280;53242;51.694;10.006;2023-05-25T12:30:56;100579.16;;;16.98;56.28
66430;BME280;53242;51.694;10.006;2023-05-25T12:33:20;100569.59;;;17.29;54.84
66430;BME280;53242;51.694;10.006;2023-05-25T12:35:47;100576.19;;;17.19;55.06